Tiempo atmosférico en la estación meteorológica de Fresno De Sayago, Zamora (804 m.)



Fecha
DESCASC
Temp. máxima en grados centígrados (hora)
DESCASC
Temp. mínima en grados centígrados (hora)
DESCASC
Temp. media en grados centígrados
DESCASC
Racha de viento máxima en m/sg (hora)
DESCASC
Velocidad máxima media en intervalos de 10 minutos(hora)
DESCASC
Precipitaciones diarias en mm
DESCASC
Precipitaciones de 00:00 a 06:00 en mm
DESCASC
Precipitaciones de 06:00 a 12:00 en mm
DESCASC
Precipitaciones de 12:00 a 18:00 en mm
DESCASC
Precipitaciones de 18:00 a 24:00 en mm
DESCASC
28-02-2021 15.9 (16:40) -1.9 (07:50) 7 7.78 (00:10) 5.83 (00:10) 0 0 0 0 0
27-02-2021 13.7 (15:40) 3.5 (23:59) 8.6 11.67 (07:40) 8.06 (07:40) 0 0 0 0 0
26-02-2021 13.7 (16:10) 4.6 (07:10) 9.1 10.56 (10:30) 7.5 (10:30) 0 0 0 0 0
25-02-2021 13.3 (15:30) 4.8 (00:00) 9.1 7.22 (22:40) 5.56 (23:10) 0 0 0 0 0
24-02-2021 15.7 (11:50) 0.1 (00:00) 7.9 10.56 (14:50) 6.94 (14:50) 0 0 0 0 0
23-02-2021 15.4 (17:00) 0.4 (00:00) 7.9 6.67 (15:30) 3.89 (16:10) 0 0 0 0 0
22-02-2021 11.6 (17:10) -1.7 (-00:0) 5 9.44 (02:10) 6.94 (02:10) 0 0 0 0 0
21-02-2021 12.1 (05:10) 3.6 (00:00) 7.9 22.5 (07:40) 10.83 (07:50) 3.2 0 2 1.2 0
20-02-2021 12.1 (16:20) 5.4 (00:00) 8.8 17.22 (10:40) 10.83 (10:40) 0 0 0 0 0
19-02-2021 13.1 (14:50) 6.2 (00:00) 9.7 13.61 (13:40) 8.89 (11:30) 0.4 0.4 0 0 0
18-02-2021 11.1 (15:40) 5.9 (00:00) 8.5 16.67 (12:00) 11.94 (13:30) 7 0 0 1 6
17-02-2021 12.4 (14:00) 6.9 (00:00) 9.6 11.11 (14:40) 7.5 (14:10) 0 0 0 0 0
16-02-2021 12.1 (14:30) 3.8 (00:00) 8 15.56 (11:40) 11.11 (11:20) 1.2 0 0 0.6 0.6
15-02-2021 17.9 (14:50) 1.5 (00:00) 9.7 5.28 (16:40) 3.61 (20:10) 0 0 0 0 0
14-02-2021 17 (15:20) 3.7 (00:00) 10.4 8.89 (16:30) 6.11 (16:20) 0 0 0 0 0
13-02-2021 13.9 (15:10) 4 (00:00) 8.9 7.78 (12:20) 5.56 (12:20) 0 0 0 0 0
12-02-2021 13.1 (16:40) 5.4 (00:00) 9.3 15.56 (04:50) 9.72 (04:50) 9.4 8.2 1.2 0 0
11-02-2021 13.2 (15:10) 6.4 (00:00) 9.8 13.33 (23:59) 9.72 (23:59) 1.6 0.4 1 0.2 0
10-02-2021 10.8 (15:40) 3.9 (00:00) 7.4 17.5 (03:10) 12.78 (03:10) 14.2 14 0 0 0.2
09-02-2021 6.7 (15:20) 2 (00:00) 4.3 18.89 (08:40) 12.78 (11:40) 26.2 2.4 12.4 8.8 2.6
08-02-2021 7 (12:30) 4 (00:00) 5.5 16.39 (12:30) 10.83 (12:30) 8.6 1.6 1 5.6 0.4
07-02-2021 5.6 (23:00) -0.1 (00:00) 2.7 16.11 (22:40) 9.72 (23:00) 5.2 0 0 0.2 5
06-02-2021 6.8 (00:00) 4.1 (00:00) 5.5 12.22 (13:40) 8.06 (13:00) 6.2 0.8 5.2 0.2 0
05-02-2021 8.3 (16:00) 4.6 (00:00) 6.5 10.56 (02:40) 7.5 (03:00) 15 4.4 1.6 1.4 7.6
04-02-2021 7.2 (00:00) 4.5 (00:00) 5.8 5.56 (00:10) 3.89 (00:20) 13.8 0 4.8 8.6 0.4
03-02-2021 10 (11:40) 5.7 (00:00) 7.8 21.39 (02:40) 12.78 (01:40) 7.4 0 2.8 4.6 0
02-02-2021 10.7 (11:30) 7.8 (08:00) 9.3 18.61 (23:40) 12.22 (23:10) 0.6 0.4 0.2 0 0
01-02-2021 12.5 (15:30) 7.6 (00:00) 10 20.28 (01:40) 13.61 (00:30) 0 0 0 0 0

Gráficas

Temp. máximas Temp. mínimas Temp. medias Precipitaciones Rachas de viento máximas Velocidades máximas media en intervalos de 10 minutos

Datos horarios

Fecha y hora oficial Temperatura (ºC) Velocidad del viento (km/h) Dirección del viento Racha (km/h) Dirección de racha Precipitación (mm) Presión (hPa) Tendencia (hPa) Humedad (%)
2021-03-02 23:00:00 7.7 3 Sur 8 Sudeste 0 -- -- 90
2021-03-02 22:00:00 8.4 4 Sudeste 15 Sudoeste 0 -- -- 84
2021-03-02 21:00:00 9.3 10 Oeste 15 Sudoeste 0 -- -- 81
2021-03-02 20:00:00 7.9 6 Sur 14 Sudoeste 0 -- -- 86
2021-03-02 19:00:00 10.2 13 Sudoeste 24 Sudoeste 0 -- -- 75
2021-03-02 18:00:00 12.6 23 Sudoeste 32 Sudoeste 0 -- -- 67
2021-03-02 17:00:00 12.4 9 Sudoeste 20 Oeste 0 -- -- 72
2021-03-02 16:00:00 14.2 9 Oeste 23 Sudoeste 0 -- -- 66
2021-03-02 15:00:00 12.6 7 Sudoeste 18 Sudoeste 0 -- -- 74
2021-03-02 14:00:00 12.1 7 Sudoeste 19 Sudoeste 0 -- -- 79
2021-03-02 13:00:00 12.2 9 Sur 15 Sur 0 -- -- 75
2021-03-02 12:00:00 10.3 8 Sudoeste 14 Oeste 0 -- -- 81
2021-03-02 11:00:00 9 4 Sudoeste 8 Sudoeste 0 -- -- 89
2021-03-02 10:00:00 6.6 3 Sudoeste 6 Oeste 0 -- -- 93
2021-03-02 09:00:00 5.5 2 Sudoeste 9 Sudeste 0 -- -- 95
2021-03-02 08:00:00 4.2 4 Sudeste 8 Sudeste 0 -- -- 97
2021-03-02 07:00:00 3.8 5 Sudeste 9 Sudeste 0.2 -- -- 99
2021-03-02 06:00:00 4.2 0 Calma 6 Este 0 -- -- 99
2021-03-02 05:00:00 5 2 Sudeste 3 Este 0 -- -- 97
2021-03-02 04:00:00 4.6 0 Calma 20 Oeste 0 -- -- 96
2021-03-02 03:00:00 6 10 Sudoeste 25 Oeste 0 -- -- 89
2021-03-02 02:00:00 5.9 6 Sur 12 Sur 0 -- -- 90
2021-03-02 01:00:00 6.7 5 Sur 11 Sudeste 0 -- -- 91
2021-03-02 00:00:00 7.6 7 Sudeste 11 Sudeste 0 -- -- 92
2021-03-01 23:00:00 8.2 10 Sur 14 Sur 0 -- -- 87
2021-03-01 22:00:00 8.1 8 Sur 13 Sudeste 0 -- -- 95
2021-03-01 21:00:00 8.1 9 Sudeste 13 Sudeste 0 -- -- 95
2021-03-01 20:00:00 8.5 4 Sudeste 13 Este 0 -- -- 92
2021-03-01 19:00:00 8.6 7 Este 12 Este 0.4 -- -- 90
2021-03-01 18:00:00 9 7 Este 28 Sur 2.6 -- -- 90
2021-03-01 17:00:00 12.2 5 Noroeste 12 Noroeste 0 -- -- 70
2021-03-01 16:00:00 12.6 9 Noroeste 17 Oeste 0 -- -- 71
2021-03-01 15:00:00 14.7 5 Sudoeste 11 Sudoeste 0 -- -- 59
2021-03-01 14:00:00 13.4 4 Sur 18 Sudeste 0 -- -- 62
2021-03-01 13:00:00 11.8 8 Sur 19 Sudeste 0 -- -- 68
2021-03-01 12:00:00 11.7 12 Sur 22 Sur 0 -- -- 71
2021-03-01 11:00:00 9.3 10 Sudeste 15 Sur 0 -- -- 81
2021-03-01 10:00:00 7 7 Sur 15 Sudeste 0 -- -- 88
2021-03-01 09:00:00 6.2 9 Sudeste 21 Sudeste 0 -- -- 88
2021-03-01 08:00:00 6.3 12 Sudeste 18 Sur 0 -- -- 87
2021-03-01 07:00:00 6.7 13 Sudeste 21 Sudeste 0 -- -- 86
2021-03-01 06:00:00 6.1 13 Sudeste 21 Sur 0 -- -- 89
2021-03-01 05:00:00 4.4 8 Sudeste 13 Sudeste 0 -- -- 91
2021-03-01 04:00:00 4.6 6 Sur 13 Sudeste 0 -- -- 88
2021-03-01 03:00:00 5.2 7 Sur 12 Sur 0 -- -- 87
2021-03-01 02:00:00 5.8 7 Sur 14 Sur 0 -- -- 85
2021-03-01 01:00:00 5.8 4 Sudeste 10 Sudeste 0 -- -- 88
2021-03-01 00:00:00 4.3 4 Sudeste 6 Sur 0 -- -- 92
2021-02-28 23:00:00 5.2 5 Sudoeste 7 Sudoeste 0 -- -- 88
2021-02-28 22:00:00 7.6 6 Sudeste 14 Este 0 -- -- 77
2021-02-28 21:00:00 7.9 10 Este 14 Este 0 -- -- 76
2021-02-28 20:00:00 6.4 9 Nordeste 18 Nordeste 0 -- -- 82
2021-02-28 19:00:00 11.2 4 Oeste 15 Sudoeste 0 -- -- 63
2021-02-28 18:00:00 12.5 13 Sudoeste 19 Oeste 0 -- -- 56
2021-02-28 17:00:00 15.3 3 Sudeste 14 Nordeste 0 -- -- 50
2021-02-28 16:00:00 13.2 7 Nordeste 15 Nordeste 0 -- -- 58
2021-02-28 15:00:00 13 6 Nordeste 12 Este 0 -- -- 56
2021-02-28 14:00:00 11.5 4 Oeste 16 Nordeste 0 -- -- 62
2021-02-28 13:00:00 8.7 10 Nordeste 18 Nordeste 0 -- -- 69
2021-02-28 12:00:00 7.8 7 Nordeste 22 Nordeste 0 -- -- 72
2021-02-28 11:00:00 5.3 13 Este 24 Este 0 -- -- 81
2021-02-28 10:00:00 2.6 15 Nordeste 20 Nordeste 0 -- -- 95
2021-02-28 09:00:00 -0.1 14 Nordeste 19 Nordeste 0 -- -- 99
2021-02-28 08:00:00 -1.5 12 Nordeste 15 Nordeste 0 -- -- 100
2021-02-28 07:00:00 -1.5 9 Nordeste 17 Nordeste 0 -- -- 98
2021-02-28 06:00:00 -0.6 12 Nordeste 23 Nordeste 0 -- -- 97
2021-02-28 05:00:00 0.6 19 Nordeste 28 Nordeste 0 -- -- 95
2021-02-28 04:00:00 1 19 Nordeste 26 Nordeste 0 -- -- 92
2021-02-28 03:00:00 1.8 20 Nordeste 26 Nordeste 0 -- -- 87
2021-02-28 02:00:00 1.8 12 Nordeste 28 Nordeste 0 -- -- 85
2021-02-28 01:00:00 3.5 16 Nordeste 28 Nordeste 0 -- -- 81
2021-02-28 00:00:00 3.5 17 Nordeste 29 Nordeste 0 -- -- 84
2021-02-27 23:00:00 5.4 21 Nordeste 28 Nordeste 0 -- -- 79
2021-02-27 22:00:00 6.5 15 Nordeste 22 Nordeste 0 -- -- 80
2021-02-27 21:00:00 7.7 16 Nordeste 22 Nordeste 0 -- -- 80
2021-02-27 20:00:00 8.8 14 Nordeste 20 Nordeste 0 -- -- 82
2021-02-27 19:00:00 10.6 13 Nordeste 22 Nordeste 0 -- -- 76
2021-02-27 18:00:00 12.8 19 Nordeste 33 Nordeste 0 -- -- 67
2021-02-27 17:00:00 13.3 23 Nordeste 37 Este 0 -- -- 66
2021-02-27 16:00:00 13.7 25 Nordeste 37 Nordeste 0 -- -- 65
2021-02-27 15:00:00 12.9 26 Nordeste 34 Nordeste 0 -- -- 70
2021-02-27 14:00:00 12 22 Nordeste 34 Nordeste 0 -- -- 71
2021-02-27 13:00:00 10.7 21 Nordeste 32 Nordeste 0 -- -- 80
2021-02-27 12:00:00 8.8 23 Nordeste 31 Nordeste 0 -- -- 88
2021-02-27 11:00:00 5.9 21 Nordeste 28 Nordeste 0 -- -- 100
2021-02-27 10:00:00 4.7 19 Nordeste 32 Nordeste 0 -- -- 100
2021-02-27 09:00:00 3.9 21 Nordeste 41 Nordeste 0 -- -- 100
2021-02-27 08:00:00 3.8 27 Nordeste 42 Nordeste 0 -- -- 100
2021-02-27 07:00:00 4.1 27 Nordeste 36 Nordeste 0 -- -- 100
2021-02-27 06:00:00 4.2 22 Nordeste 31 Nordeste 0 -- -- 100
2021-02-27 05:00:00 3.9 13 Nordeste 23 Nordeste 0 -- -- 100
2021-02-27 04:00:00 4.1 17 Nordeste 25 Nordeste 0 -- -- 100
2021-02-27 03:00:00 4.7 19 Nordeste 25 Nordeste 0 -- -- 99
2021-02-27 02:00:00 5.3 19 Nordeste 30 Nordeste 0 -- -- 98
2021-02-27 01:00:00 5.9 17 Nordeste 22 Nordeste 0 -- -- 97
2021-02-27 00:00:00 6.4 16 Nordeste 23 Nordeste 0 -- -- 96
2021-02-26 23:00:00 5.9 13 Nordeste 17 Nordeste 0 -- -- 94
2021-02-26 22:00:00 5.4 11 Nordeste 14 Nordeste 0 -- -- 93
2021-02-26 21:00:00 7 9 Nordeste 10 Nordeste 0 -- -- 89
2021-02-26 20:00:00 7.1 9 Nordeste 12 Nordeste 0 -- -- 90
2021-02-26 19:00:00 9.4 10 Nordeste 15 Nordeste 0 -- -- 83
2021-02-26 18:00:00 11.8 14 Nordeste 20 Nordeste 0 -- -- 73
2021-02-26 17:00:00 12.3 16 Nordeste 24 Nordeste 0 -- -- 70
2021-02-26 16:00:00 13.3 14 Nordeste 22 Nordeste 0 -- -- 65
2021-02-26 15:00:00 11.8 16 Nordeste 24 Nordeste 0 -- -- 73
2021-02-26 14:00:00 11.8 16 Nordeste 26 Nordeste 0 -- -- 72
2021-02-26 13:00:00 10 16 Nordeste 27 Nordeste 0 -- -- 81
2021-02-26 12:00:00 8.8 18 Nordeste 33 Nordeste 0 -- -- 85
2021-02-26 11:00:00 8 26 Nordeste 38 Nordeste 0 -- -- 88
2021-02-26 10:00:00 6.4 23 Nordeste 35 Nordeste 0 -- -- 99
2021-02-26 09:00:00 5.1 19 Nordeste 26 Nordeste 0 -- -- 100
2021-02-26 08:00:00 4.7 21 Nordeste 29 Nordeste 0 -- -- 100
2021-02-26 07:00:00 4.7 23 Nordeste 30 Nordeste 0 -- -- 99
2021-02-26 06:00:00 4.9 21 Nordeste 32 Nordeste 0 -- -- 98
2021-02-26 05:00:00 5.5 23 Nordeste 34 Nordeste 0 -- -- 97
2021-02-26 04:00:00 6.1 20 Nordeste 31 Nordeste 0 -- -- 97
2021-02-26 03:00:00 6.5 19 Nordeste 26 Nordeste 0 -- -- 97
2021-02-26 02:00:00 6.9 20 Nordeste 27 Nordeste 0 -- -- 96
2021-02-26 01:00:00 7.4 20 Nordeste 24 Nordeste 0 -- -- 95
2021-02-26 00:00:00 7.5 15 Nordeste 24 Nordeste 0 -- -- 93
2021-02-25 23:00:00 8.3 19 Nordeste 26 Nordeste 0 -- -- 88
2021-02-25 22:00:00 8.9 18 Nordeste 23 Nordeste 0 -- -- 86
2021-02-25 21:00:00 9.2 16 Nordeste 21 Nordeste 0 -- -- 85
2021-02-25 20:00:00 9.4 15 Nordeste 24 Nordeste 0 -- -- 85
2021-02-25 19:00:00 9.8 14 Nordeste 21 Nordeste 0 -- -- 82
2021-02-25 18:00:00 10.7 16 Nordeste 22 Nordeste 0 -- -- 80
2021-02-25 17:00:00 11.6 14 Nordeste 23 Nordeste 0 -- -- 74
2021-02-25 16:00:00 11.5 9 Nordeste 14 Nordeste 0 -- -- 75
2021-02-25 15:00:00 11.7 3 Oeste 8 Sudoeste 0 -- -- 73
2021-02-25 14:00:00 10.8 4 Noroeste 13 Oeste 0 -- -- 80
2021-02-25 13:00:00 9 9 Oeste 15 Sudoeste 0 -- -- 87
2021-02-25 12:00:00 9.4 9 Oeste 14 Sudoeste 0 -- -- 80
2021-02-25 11:00:00 9.6 10 Sudoeste 16 Sudoeste 0 -- -- 77
2021-02-25 10:00:00 8.2 3 Sudeste 6 Sudeste 0 -- -- 87
2021-02-25 09:00:00 6 2 Este 5 Sudeste 0 -- -- 93
2021-02-25 08:00:00 5.2 5 Sudoeste 16 Oeste 0 -- -- 92
2021-02-25 07:00:00 6.4 5 Sudoeste 13 Sur 0 -- -- 86
2021-02-25 06:00:00 6.3 11 Sudeste 18 Sudeste 0 -- -- 86
2021-02-25 05:00:00 6.3 13 Sudeste 18 Sudeste 0 -- -- 87
2021-02-25 04:00:00 7.7 11 Sudeste 17 Sudeste 0 -- -- 81
2021-02-25 03:00:00 8.5 10 Sudeste 19 Sudeste 0 -- -- 79
2021-02-25 02:00:00 8.7 15 Sudeste 21 Sudeste 0 -- -- 80
2021-02-25 01:00:00 7.3 9 Sudeste 15 Sudeste 0 -- -- 85
2021-02-25 00:00:00 6.2 4 Sudeste 8 Sudeste 0 -- -- 86
2021-02-24 23:00:00 7 6 Sudeste 14 Sur 0 -- -- 84
2021-02-24 22:00:00 5.8 7 Sudoeste 10 Sudoeste 0 -- -- 86
2021-02-24 21:00:00 7.2 6 Sudoeste 18 Sudoeste 0 -- -- 81
2021-02-24 20:00:00 7.9 6 Sudoeste 12 Sudoeste 0 -- -- 80
2021-02-24 19:00:00 10.5 7 Sur 23 Sur 0 -- -- 71
2021-02-24 18:00:00 13.8 14 Sur 30 Sur 0 -- -- 58
2021-02-24 17:00:00 15 17 Sudoeste 32 Sudoeste 0 -- -- 54
2021-02-24 16:00:00 14.5 22 Sudoeste 37 Sudoeste 0 -- -- 56
2021-02-24 15:00:00 15.5 24 Sudoeste 38 Sudoeste 0 -- -- 49
2021-02-24 14:00:00 14.5 19 Sur 31 Sur 0 -- -- 52
2021-02-24 13:00:00 14.6 9 Sur 18 Sudeste 0 -- -- 48
2021-02-24 12:00:00 14.1 8 Sur 13 Sudoeste 0 -- -- 50
2021-02-24 11:00:00 13.7 3 Este 5 Este 0 -- -- 57
2021-02-24 10:00:00 7.3 3 Nordeste 8 Nordeste 0 -- -- 74
2021-02-24 09:00:00 2.3 0 Calma 6 Sudoeste 0 -- -- 84
2021-02-24 08:00:00 2.8 0 Calma 10 Sudeste 0 -- -- 81
2021-02-24 07:00:00 3.3 5 Sudeste 13 Sudeste 0 -- -- 80
2021-02-24 06:00:00 1.8 2 Sur 9 Sudeste 0 -- -- 86
2021-02-24 05:00:00 1.5 4 Este 9 Nordeste 0 -- -- 90
2021-02-24 04:00:00 0.7 3 Sudeste 5 Sudeste 0 -- -- 85
2021-02-24 03:00:00 1.2 4 Sudeste 8 Sudoeste 0 -- -- 91
2021-02-24 02:00:00 3.1 5 Sudoeste 7 Oeste 0 -- -- 81
2021-02-24 01:00:00 3.4 4 Sudeste 6 Sudeste 0 -- -- 80
2021-02-24 00:00:00 3.9 4 Sudeste 6 Sudeste 0 -- -- 78
2021-02-23 23:00:00 4.3 5 Sudeste 8 Sudeste 0 -- -- 75
2021-02-23 22:00:00 4.7 4 Sur 6 Sur 0 -- -- 73
2021-02-23 21:00:00 4.6 3 Este 5 Sur 0 -- -- 74
2021-02-23 20:00:00 6.9 4 Sur 11 Sur 0 -- -- 65
2021-02-23 19:00:00 11 9 Sur 23 Sur 0 -- -- 46
2021-02-23 18:00:00 14 12 Sur 18 Sur 0 -- -- 32
2021-02-23 17:00:00 15.4 6 Sur 24 Sudoeste 0 -- -- 37
2021-02-23 16:00:00 14.2 13 Sudoeste 24 Sur 0 -- -- 44
2021-02-23 15:00:00 13.9 9 Sudoeste 15 Sudeste 0 -- -- 44
2021-02-23 14:00:00 13.4 7 Sudeste 16 Sudeste 0 -- -- 50
2021-02-23 13:00:00 12.5 7 Sur 14 Sur 0 -- -- 50
2021-02-23 12:00:00 11.6 8 Sur 14 Sudeste 0 -- -- 59
2021-02-23 11:00:00 9.9 8 Sudeste 14 Sudeste 0 -- -- 64
2021-02-23 10:00:00 6.3 6 Sur 12 Sur 0 -- -- 76
2021-02-23 09:00:00 2.3 3 Sudoeste 14 Sudeste 0 -- -- 86
2021-02-23 08:00:00 1.3 11 Sudeste 14 Sudeste 0 -- -- 90
2021-02-23 07:00:00 0.7 3 Sudoeste 7 Sudeste 0 -- -- 92
2021-02-23 06:00:00 0.7 3 Sudeste 9 Sudeste 0 -- -- 92
2021-02-23 05:00:00 0.4 4 Sur 8 Sudeste 0 -- -- 91
2021-02-23 04:00:00 0.5 5 Sur 11 Sur 0 -- -- 90
2021-02-23 03:00:00 1.3 4 Sudeste 9 Sudeste 0 -- -- 84
2021-02-23 02:00:00 1.1 4 Sudeste 11 Sudeste 0 -- -- 80
2021-02-23 01:00:00 1 6 Sur 12 Sudeste 0 -- -- 80
2021-02-23 00:00:00 2 7 Sur 13 Sudeste 0 -- -- 73
2021-02-22 23:00:00 2.2 4 Sudeste 9 Sudeste 0 -- -- 68
2021-02-22 22:00:00 3 6 Este 7 Sudeste 0 -- -- 63
2021-02-22 21:00:00 3.1 5 Sudeste 8 Sudeste 0 -- -- 71
2021-02-22 20:00:00 4 3 Sur 6 Sudoeste 0 -- -- 75
2021-02-22 19:00:00 8.2 7 Oeste 15 Sudoeste 0 -- -- 46
2021-02-22 18:00:00 10.7 12 Sudoeste 16 Sudoeste 0 -- -- 43
2021-02-22 17:00:00 11.5 8 Oeste 21 Sudoeste 0 -- -- 43
2021-02-22 16:00:00 10.7 11 Sudoeste 24 Sudoeste 0 -- -- 48
2021-02-22 15:00:00 9.8 13 Sudoeste 22 Oeste 0 -- -- 50
2021-02-22 14:00:00 9.1 11 Sur 17 Sudoeste 0 -- -- 54
2021-02-22 13:00:00 9.2 7 Sudoeste 12 Sudoeste 0 -- -- 57
2021-02-22 12:00:00 7.4 6 Sudoeste 18 Oeste 0 -- -- 63
2021-02-22 11:00:00 5.1 12 Oeste 20 Sudoeste 0 -- -- 75
2021-02-22 10:00:00 3 8 Sudoeste 12 Sudoeste 0 -- -- 96
2021-02-22 09:00:00 -0.5 6 Sudoeste 12 Sudoeste 0 -- -- 100
2021-02-22 08:00:00 -0.7 10 Sudoeste 14 Sudoeste 0 -- -- 99
2021-02-22 07:00:00 -0.7 6 Sudoeste 17 Oeste 0 -- -- 97
2021-02-22 06:00:00 0 8 Oeste 15 Sudoeste 0 -- -- 98
2021-02-22 05:00:00 0.4 12 Sudoeste 18 Oeste 0 -- -- 97
2021-02-22 04:00:00 1.3 12 Oeste 24 Oeste 0 -- -- 95
2021-02-22 03:00:00 2.2 19 Oeste 34 Oeste 0 -- -- 94
2021-02-22 02:00:00 2.6 22 Oeste 32 Oeste 0 -- -- 93
2021-02-22 01:00:00 3.1 21 Oeste 30 Oeste 0 -- -- 91
2021-02-22 00:00:00 3.6 19 Oeste 28 Oeste 0 -- -- 88
2021-02-21 23:00:00 4.2 19 Oeste 26 Oeste 0 -- -- 88
2021-02-21 22:00:00 4.7 20 Oeste 26 Oeste 0 -- -- 85
2021-02-21 21:00:00 5.1 17 Oeste 26 Oeste 0 -- -- 80
2021-02-21 20:00:00 5.5 17 Noroeste 28 Oeste 0 -- -- 79
2021-02-21 19:00:00 5.6 23 Oeste 34 Oeste 0 -- -- 82
2021-02-21 18:00:00 5.7 18 Oeste 37 Oeste 0 -- -- 83
2021-02-21 17:00:00 5.3 18 Oeste 33 Oeste 0 -- -- 89
2021-02-21 16:00:00 4.8 30 Oeste 37 Oeste 0 -- -- 90
2021-02-21 15:00:00 5 18 Sudoeste 26 Sudoeste 0.2 -- -- 92
2021-02-21 14:00:00 4.3 9 Sudoeste 18 Sudoeste 0.4 -- -- 94
2021-02-21 13:00:00 4.6 13 Sudoeste 22 Sudoeste 0.6 -- -- 94
2021-02-21 12:00:00 4.4 15 Sudoeste 28 Sudoeste 0.6 -- -- 96
2021-02-21 11:00:00 4.8 20 Sudoeste 40 Sudoeste 0.6 -- -- 94
2021-02-21 10:00:00 5.4 26 Sudoeste 40 Sudoeste 0.8 -- -- 94
2021-02-21 09:00:00 7.9 19 Sur 44 Sur 0 -- -- 86
2021-02-21 08:00:00 9.2 33 Sur 81 Sur 0 -- -- 72
2021-02-21 07:00:00 10.2 30 Sur 54 Sur 0 -- -- 58
2021-02-21 06:00:00 10.5 19 Sur 60 Sur 0 -- -- 47
2021-02-21 05:00:00 11.6 24 Sur 49 Sur 0 -- -- 40
2021-02-21 04:00:00 9.4 11 Sudeste 21 Sudeste 0 -- -- 48
2021-02-21 03:00:00 9.2 13 Sudeste 21 Sur 0 -- -- 50
2021-02-21 02:00:00 9.6 16 Sur 28 Sudeste 0 -- -- 51
2021-02-21 01:00:00 10.5 17 Sur 30 Sur 0 -- -- 43
2021-02-21 00:00:00 10.3 16 Sur 44 Sur 0 -- -- 46
2021-02-20 23:00:00 11.2 26 Sur 37 Sur 0 -- -- 42
2021-02-20 22:00:00 10.2 21 Sur 31 Sur 0 -- -- 50
2021-02-20 21:00:00 9.8 12 Sur 26 Sur 0 -- -- 53
2021-02-20 20:00:00 10.2 15 Sur 29 Sur 0 -- -- 53
2021-02-20 19:00:00 10.8 19 Sur 45 Sur 0 -- -- 53
2021-02-20 18:00:00 11.2 21 Sur 44 Sur 0 -- -- 53
2021-02-20 17:00:00 11.6 22 Sur 47 Sur 0 -- -- 57
2021-02-20 16:00:00 11.9 28 Sur 49 Sur 0 -- -- 58
2021-02-20 15:00:00 11.3 31 Sur 47 Sur 0 -- -- 60
2021-02-20 14:00:00 11.2 31 Sur 51 Sur 0 -- -- 66
2021-02-20 13:00:00 9.8 37 Sur 51 Sudoeste 0 -- -- 69
2021-02-20 12:00:00 9.5 30 Sur 49 Sur 0 -- -- 69
2021-02-20 11:00:00 9.5 34 Sur 62 Sur 0 -- -- 71
2021-02-20 10:00:00 7.9 22 Sur 35 Sur 0 -- -- 77
2021-02-20 09:00:00 5.8 12 Sur 26 Sur 0 -- -- 85
2021-02-20 08:00:00 5.9 13 Sur 27 Sur 0 -- -- 83
2021-02-20 07:00:00 6.3 17 Sur 29 Sur 0 -- -- 77
2021-02-20 06:00:00 6.3 16 Sur 27 Sur 0 -- -- 78
2021-02-20 05:00:00 6.8 20 Sur 27 Sudoeste 0 -- -- 81
2021-02-20 04:00:00 6.6 15 Sudoeste 26 Sudoeste 0 -- -- 87
2021-02-20 03:00:00 5.8 3 Sudoeste 12 Sudoeste 0 -- -- 87
2021-02-20 02:00:00 6.7 7 Sur 22 Sur 0 -- -- 83
2021-02-20 01:00:00 5.4 7 Sudeste 15 Sur 0 -- -- 93
2021-02-20 00:00:00 6.2 8 Sudeste 21 Sur 0 -- -- 88
2021-02-19 23:00:00 6.4 15 Sur 24 Sur 0 -- -- 87
2021-02-19 22:00:00 7.6 9 Sur 13 Sur 0 -- -- 83
2021-02-19 21:00:00 7.9 9 Sur 32 Sur 0 -- -- 80
2021-02-19 20:00:00 8.8 18 Sur 41 Sudoeste 0 -- -- 74
2021-02-19 19:00:00 9.9 31 Sudoeste 44 Sur 0 -- -- 68
2021-02-19 18:00:00 10.8 28 Sur 42 Sudoeste 0 -- -- 63
2021-02-19 17:00:00 11.2 28 Sudoeste 43 Sudoeste 0 -- -- 64
2021-02-19 16:00:00 11.1 29 Sudoeste 41 Sudoeste 0 -- -- 60
2021-02-19 15:00:00 12.4 30 Sudoeste 45 Sudoeste 0 -- -- 62
2021-02-19 14:00:00 12.1 25 Sudoeste 49 Sur 0 -- -- 63
2021-02-19 13:00:00 12.2 31 Sudoeste 45 Sudoeste 0 -- -- 59
2021-02-19 12:00:00 10.8 24 Sur 45 Sur 0 -- -- 68
2021-02-19 11:00:00 9.8 22 Sur 37 Sudoeste 0 -- -- 71
2021-02-19 10:00:00 9 25 Sur 37 Sudoeste 0 -- -- 73
2021-02-19 09:00:00 7.1 17 Sudoeste 28 Sudoeste 0 -- -- 83
2021-02-19 08:00:00 7.5 17 Sudoeste 32 Sudoeste 0 -- -- 83
2021-02-19 07:00:00 7 14 Sudoeste 26 Sudoeste 0 -- -- 91
2021-02-19 06:00:00 7.1 11 Sudoeste 23 Sudoeste 0 -- -- 92
2021-02-19 05:00:00 7.4 11 Sudoeste 26 Sudoeste 0 -- -- 93
2021-02-19 04:00:00 7.9 19 Sur 36 Sudoeste 0 -- -- 89
2021-02-19 03:00:00 7.7 20 Sudoeste 38 Sudoeste 0 -- -- 91
2021-02-19 02:00:00 7.9 18 Sudoeste 28 Sudoeste 0.2 -- -- 96
2021-02-19 01:00:00 8 22 Sudoeste 37 Sudoeste 0.2 -- -- 95
2021-02-19 00:00:00 8.1 21 Sudoeste 28 Sudoeste 0.4 -- -- 97
2021-02-18 23:00:00 8.4 15 Sudoeste 34 Sudoeste 0.4 -- -- 99
2021-02-18 22:00:00 8.3 16 Sudoeste 32 Sudoeste 2.6 -- -- 99
2021-02-18 21:00:00 8.4 18 Sudoeste 26 Sudoeste 2 -- -- 99
2021-02-18 20:00:00 8.5 17 Sudoeste 31 Sur 0.6 -- -- 99
2021-02-18 19:00:00 8.8 17 Sudoeste 28 Sudoeste 0 -- -- 96
2021-02-18 18:00:00 9.3 17 Sudoeste 44 Sudoeste 0.4 -- -- 93
2021-02-18 17:00:00 10.5 27 Sudoeste 41 Sudoeste 0 -- -- 85
2021-02-18 16:00:00 10.4 23 Sudoeste 36 Sudoeste 0.6 -- -- 87
2021-02-18 15:00:00 9.4 27 Sudoeste 50 Sudoeste 0 -- -- 88
2021-02-18 14:00:00 10.4 29 Sudoeste 60 Sudoeste 0 -- -- 81
2021-02-18 13:00:00 10.5 40 Sudoeste 58 Sudoeste 0 -- -- 74
2021-02-18 12:00:00 11 42 Sudoeste 60 Sudoeste 0 -- -- 72
2021-02-18 11:00:00 9.6 36 Sudoeste 47 Sudoeste 0 -- -- 82
2021-02-18 10:00:00 8.1 35 Sudoeste 46 Sur 0 -- -- 87
2021-02-18 09:00:00 7 25 Sudoeste 34 Sudoeste 0 -- -- 90
2021-02-18 08:00:00 6.4 27 Sur 40 Sur 0 -- -- 93
2021-02-18 07:00:00 6 21 Sudoeste 42 Sudoeste 0 -- -- 96
2021-02-18 06:00:00 6.9 31 Sudoeste 48 Sudoeste 0 -- -- 94
2021-02-18 05:00:00 6.9 27 Sudoeste 38 Sudoeste 0 -- -- 96
2021-02-18 04:00:00 7.6 29 Sudoeste 40 Sudoeste 0 -- -- 94
2021-02-18 03:00:00 8.2 22 Sudoeste 32 Sur 0 -- -- 94
2021-02-18 02:00:00 8.6 18 Sudoeste 32 Sudoeste 0 -- -- 92
2021-02-18 01:00:00 8.5 21 Sudoeste 33 Sudoeste 0 -- -- 90
2021-02-18 00:00:00 7.6 17 Sudoeste 26 Sudoeste 0 -- -- 91
2021-02-17 23:00:00 8.3 18 Sudoeste 34 Sudoeste 0 -- -- 87
2021-02-17 22:00:00 9.4 27 Sudoeste 35 Sur 0 -- -- 83
2021-02-17 21:00:00 9 17 Sudoeste 31 Sur 0 -- -- 84
2021-02-17 20:00:00 9.9 22 Sudoeste 28 Sudoeste 0 -- -- 83
2021-02-17 19:00:00 10.3 14 Sur 31 Sur 0 -- -- 83
2021-02-17 18:00:00 12 22 Sur 30 Sur 0 -- -- 75
2021-02-17 17:00:00 11.6 15 Sudoeste 31 Sudoeste 0 -- -- 82
2021-02-17 16:00:00 11.9 20 Sudoeste 37 Sudoeste 0 -- -- 78
2021-02-17 15:00:00 11.8 21 Sudoeste 40 Sudoeste 0 -- -- 81
2021-02-17 14:00:00 12.4 25 Sudoeste 35 Sudoeste 0 -- -- 77
2021-02-17 13:00:00 11.2 23 Sudoeste 35 Sudoeste 0 -- -- 85
2021-02-17 12:00:00 11.1 22 Sudoeste 31 Sudoeste 0 -- -- 89
2021-02-17 11:00:00 9 11 Sudoeste 21 Sudoeste 0 -- -- 97
2021-02-17 10:00:00 8.5 12 Sudoeste 17 Sudoeste 0 -- -- 100
2021-02-17 09:00:00 7.8 9 Sur 12 Sur 0 -- -- 100
2021-02-17 08:00:00 7.7 6 Sudoeste 11 Sur 0 -- -- 100
2021-02-17 07:00:00 7.4 6 Sudoeste 12 Sudoeste 0 -- -- 100
2021-02-17 06:00:00 7.7 7 Sur 12 Sudoeste 0 -- -- 100
2021-02-17 05:00:00 7.4 6 Sudoeste 8 Sudoeste 0 -- -- 100
2021-02-17 04:00:00 7.1 7 Sur 10 Sudoeste 0 -- -- 100
2021-02-17 03:00:00 7.4 8 Sudoeste 15 Oeste 0 -- -- 100
2021-02-17 02:00:00 7.8 10 Sudoeste 16 Sudoeste 0 -- -- 100
2021-02-17 01:00:00 6.9 4 Sudoeste 18 Sudoeste 0 -- -- 100
2021-02-17 00:00:00 7.6 14 Sudoeste 21 Sudoeste 0 -- -- 99
2021-02-16 23:00:00 8.1 13 Sudoeste 18 Sudoeste 0.2 -- -- 99
2021-02-16 22:00:00 8.3 9 Sur 13 Sur 0.2 -- -- 100
2021-02-16 21:00:00 8.4 10 Sudoeste 20 Sudoeste 0.2 -- -- 99
2021-02-16 20:00:00 8.7 12 Sudoeste 23 Sudoeste 0 -- -- 97
2021-02-16 19:00:00 8.9 18 Sudoeste 31 Sudoeste 0 -- -- 95
2021-02-16 18:00:00 9.2 23 Sudoeste 35 Sudoeste 0 -- -- 93
2021-02-16 17:00:00 9.7 24 Sudoeste 37 Sudoeste 0 -- -- 87
2021-02-16 16:00:00 10.6 22 Sudoeste 44 Sudoeste 0 -- -- 82
2021-02-16 15:00:00 10.9 30 Sudoeste 51 Sudoeste 0 -- -- 81
2021-02-16 14:00:00 11 28 Sudoeste 54 Sudoeste 0.6 -- -- 78
2021-02-16 13:00:00 11.5 37 Sudoeste 55 Sudoeste 0 -- -- 74
2021-02-16 12:00:00 11.5 35 Sudoeste 56 Sudoeste 0 -- -- 75
2021-02-16 11:00:00 9.7 37 Sudoeste 53 Sudoeste 0 -- -- 78
2021-02-16 10:00:00 7.7 30 Sudoeste 46 Sudoeste 0 -- -- 84
2021-02-16 09:00:00 7.2 34 Sudoeste 47 Sudoeste 0 -- -- 84
2021-02-16 08:00:00 7.3 30 Sudoeste 44 Sudoeste 0 -- -- 78
2021-02-16 07:00:00 5 17 Sudoeste 22 Sudoeste 0 -- -- 88
2021-02-16 06:00:00 4 13 Sudoeste 21 Sudoeste 0 -- -- 89
2021-02-16 05:00:00 6.8 16 Oeste 25 Oeste 0 -- -- 76
2021-02-16 04:00:00 6.6 10 Sudoeste 19 Sudoeste 0 -- -- 78
2021-02-16 03:00:00 7.6 14 Sur 21 Sur 0 -- -- 76
2021-02-16 02:00:00 7.7 10 Sur 21 Sur 0 -- -- 76
2021-02-16 01:00:00 6.3 8 Sur 10 Sur 0 -- -- 81
2021-02-16 00:00:00 6.7 7 Sudoeste 16 Sur 0 -- -- 78
2021-02-15 23:00:00 6.8 11 Sur 15 Sur 0 -- -- 78
2021-02-15 22:00:00 7.5 7 Sur 12 Sur 0 -- -- 75
2021-02-15 21:00:00 8.3 6 Sur 18 Sur 0 -- -- 76
2021-02-15 20:00:00 9.3 11 Sur 16 Sur 0 -- -- 72
2021-02-15 19:00:00 10.6 8 Sudoeste 17 Sur 0 -- -- 71
2021-02-15 18:00:00 15.3 7 Sudoeste 17 Sudoeste 0 -- -- 63
2021-02-15 17:00:00 16.7 12 Sudoeste 19 Sur 0 -- -- 51
2021-02-15 16:00:00 17.2 10 Sudoeste 18 Sudoeste 0 -- -- 50
2021-02-15 15:00:00 17.6 9 Sudoeste 18 Sudoeste 0 -- -- 50
2021-02-15 14:00:00 16.5 8 Sur 15 Sur 0 -- -- 50
2021-02-15 13:00:00 15.7 7 Sudeste 15 Sur 0 -- -- 54
2021-02-15 12:00:00 15 4 Sur 9 Sur 0 -- -- 56
2021-02-15 11:00:00 11.6 3 Sudeste 12 Nordeste 0 -- -- 74
2021-02-15 10:00:00 6.4 7 Nordeste 9 Nordeste 0 -- -- 90
2021-02-15 09:00:00 2.4 3 Este 6 Este 0 -- -- 96
2021-02-15 08:00:00 2.3 3 Sudeste 6 Sudeste 0 -- -- 96
2021-02-15 07:00:00 2.3 3 Este 9 Nordeste 0 -- -- 98
2021-02-15 06:00:00 3.8 3 Este 8 Sudeste 0 -- -- 93
2021-02-15 05:00:00 3 5 Sudeste 7 Sudeste 0 -- -- 96
2021-02-15 04:00:00 4.3 0 Calma 11 Sudeste 0 -- -- 92
2021-02-15 03:00:00 4.6 6 Sudeste 8 Sudeste 0 -- -- 96
2021-02-15 02:00:00 3.9 5 Nordeste 8 Nordeste 0 -- -- 95
2021-02-15 01:00:00 4 4 Nordeste 6 Sudeste 0 -- -- 88
2021-02-15 00:00:00 5.1 4 Sudeste 7 Sudeste 0 -- -- 93
2021-02-14 23:00:00 5.4 3 Sudoeste 7 Sur 0 -- -- 91
2021-02-14 22:00:00 6.8 6 Sudoeste 11 Sur 0 -- -- 86
2021-02-14 21:00:00 8.1 6 Sudoeste 9 Sudoeste 0 -- -- 83
2021-02-14 20:00:00 9.2 8 Sudoeste 17 Sudoeste 0 -- -- 78
2021-02-14 19:00:00 10.4 13 Sudoeste 16 Sudoeste 0 -- -- 76
2021-02-14 18:00:00 13 12 Sudoeste 30 Sudoeste 0 -- -- 67
2021-02-14 17:00:00 15.6 17 Sudoeste 32 Sudoeste 0 -- -- 55
2021-02-14 16:00:00 16.4 16 Sudoeste 31 Sudoeste 0 -- -- 58
2021-02-14 15:00:00 16.5 10 Sudoeste 17 Sudoeste 0 -- -- 58
2021-02-14 14:00:00 15.5 6 Sudoeste 14 Sur 0 -- -- 61
2021-02-14 13:00:00 14.7 9 Sur 16 Sur 0 -- -- 61
2021-02-14 12:00:00 13.9 10 Sudeste 14 Sudeste 0 -- -- 66
2021-02-14 11:00:00 12.3 6 Sudeste 11 Sudeste 0 -- -- 76
2021-02-14 10:00:00 8.6 4 Sudoeste 9 Sudeste 0 -- -- 86
2021-02-14 09:00:00 4.3 4 Sur 9 Sudeste 0 -- -- 97
2021-02-14 08:00:00 4.1 5 Sudeste 8 Sudeste 0 -- -- 99
2021-02-14 07:00:00 3.7 6 Sudeste 9 Sudeste 0 -- -- 100
2021-02-14 06:00:00 3.9 5 Sudeste 11 Sudeste 0 -- -- 100
2021-02-14 05:00:00 4.6 8 Sudeste 9 Sudeste 0 -- -- 100
2021-02-14 04:00:00 4.4 6 Sudeste 9 Sudeste 0 -- -- 100
2021-02-14 03:00:00 4.4 4 Sudeste 7 Sudeste 0 -- -- 100
2021-02-14 02:00:00 4.2 5 Sudeste 9 Sudeste 0 -- -- 100
2021-02-14 01:00:00 4.5 5 Sudeste 7 Sudeste 0 -- -- 100
2021-02-14 00:00:00 5.2 5 Sudeste 6 Sudeste 0 -- -- 100
2021-02-13 23:00:00 5.1 5 Sudeste 9 Sudeste 0 -- -- 98
2021-02-13 22:00:00 4.9 3 Sur 8 Sudeste 0 -- -- 97
2021-02-13 21:00:00 6.4 6 Sudeste 9 Sudeste 0 -- -- 95
2021-02-13 20:00:00 7.6 4 Sudoeste 12 Sudoeste 0 -- -- 94
2021-02-13 19:00:00 9.8 10 Sudoeste 20 Oeste 0 -- -- 83
2021-02-13 18:00:00 11.7 9 Oeste 16 Oeste 0 -- -- 77
2021-02-13 17:00:00 12.5 6 Oeste 19 Oeste 0 -- -- 71
2021-02-13 16:00:00 12.5 12 Oeste 24 Oeste 0 -- -- 69
2021-02-13 15:00:00 12.8 15 Oeste 23 Oeste 0 -- -- 69
2021-02-13 14:00:00 12.6 13 Noroeste 25 Oeste 0 -- -- 70
2021-02-13 13:00:00 10.4 15 Sudoeste 28 Oeste 0 -- -- 70
2021-02-13 08:00:00 -- -- -- -- -- -- -- -- --
2021-02-13 07:00:00 5.2 15 Sudoeste 23 Sudoeste 0 -- -- 100
2021-02-13 06:00:00 4.8 8 Sudoeste 12 Sudoeste 0 -- -- 100
2021-02-13 05:00:00 4.3 8 Sur 14 Sudoeste 0 -- -- 99
2021-02-13 04:00:00 4 12 Sudoeste 17 Sudoeste 0 -- -- 98
2021-02-13 03:00:00 4.2 8 Sudoeste 14 Sudoeste 0 -- -- 96
2021-02-13 02:00:00 4.7 4 Sur 13 Sudoeste 0 -- -- 96
2021-02-13 01:00:00 5.1 6 Sur 17 Sudoeste 0 -- -- 95
2021-02-13 00:00:00 5.9 8 Sudoeste 13 Oeste 0 -- -- 91
2021-02-12 23:00:00 7.2 10 Oeste 20 Oeste 0 -- -- 84
2021-02-12 22:00:00 7.2 15 Oeste 27 Oeste 0 -- -- 86
2021-02-12 21:00:00 6.2 8 Sudoeste 13 Oeste 0 -- -- 90
2021-02-12 20:00:00 7.5 12 Oeste 13 Oeste 0 -- -- 83
2021-02-12 19:00:00 8.4 9 Sudoeste 17 Oeste 0 -- -- 81
2021-02-12 18:00:00 10.8 8 Oeste 24 Oeste 0 -- -- 74
2021-02-12 17:00:00 12.2 21 Oeste 33 Oeste 0 -- -- 64
2021-02-12 16:00:00 12.3 20 Oeste 33 Oeste 0 -- -- 64
2021-02-12 15:00:00 11.7 22 Oeste 43 Oeste 0 -- -- 70
2021-02-12 14:00:00 10.7 34 Oeste 48 Oeste 0 -- -- 72
2021-02-12 13:00:00 9.8 31 Oeste 41 Oeste 0 -- -- 80
2021-02-12 12:00:00 8.2 21 Oeste 35 Oeste 0 -- -- 88
2021-02-12 11:00:00 7.5 18 Sudoeste 40 Oeste 0 -- -- 92
2021-02-12 10:00:00 7.2 21 Oeste 37 Oeste 0 -- -- 95
2021-02-12 09:00:00 6.2 19 Oeste 31 Oeste 0 -- -- 99
2021-02-12 08:00:00 6.3 19 Sudoeste 42 Oeste 0 -- -- 99
2021-02-12 07:00:00 7.1 24 Sudoeste 41 Sudoeste 1.2 -- -- 96
2021-02-12 06:00:00 7.3 20 Oeste 35 Oeste 0 -- -- 96
2021-02-12 05:00:00 8 25 Oeste 56 Sudoeste 1.2 -- -- 96
2021-02-12 04:00:00 9 26 Sudoeste 40 Sudoeste 0 -- -- 97
2021-02-12 03:00:00 9.1 29 Sudoeste 46 Sudoeste 0.2 -- -- 97
2021-02-12 02:00:00 9.3 27 Sudoeste 41 Sudoeste 2 -- -- 98
2021-02-12 01:00:00 9.5 27 Sudoeste 49 Sur 4.8 -- -- 98
2021-02-12 00:00:00 10.2 35 Sudoeste 48 Sudoeste 0 -- -- 94
2021-02-11 23:00:00 10.1 29 Sur 41 Sur 0 -- -- 95
2021-02-11 22:00:00 10.3 27 Sur 37 Sur 0 -- -- 92
2021-02-11 21:00:00 10.1 13 Sudoeste 33 Sudoeste 0 -- -- 93
2021-02-11 20:00:00 10.4 22 Sudoeste 41 Sudoeste 0 -- -- 91
2021-02-11 19:00:00 11.1 24 Sudoeste 36 Sur 0 -- -- 90
2021-02-11 18:00:00 12.2 21 Sur 37 Sudoeste 0 -- -- 85
2021-02-11 17:00:00 12.6 30 Sudoeste 40 Sudoeste 0 -- -- 81
2021-02-11 16:00:00 13 25 Sudoeste 41 Sudoeste 0 -- -- 84
2021-02-11 15:00:00 12.1 23 Sudoeste 34 Sudoeste 0 -- -- 93
2021-02-11 14:00:00 11 21 Sudoeste 44 Sudoeste 0.2 -- -- 98
2021-02-11 13:00:00 11.4 24 Sudoeste 37 Sudoeste 0 -- -- 95
2021-02-11 12:00:00 10.5 20 Sudoeste 30 Sudoeste 0.4 -- -- 100
2021-02-11 11:00:00 10.2 17 Sudoeste 24 Sudoeste 0 -- -- 100
2021-02-11 10:00:00 9.7 15 Sudoeste 22 Sudoeste 0.2 -- -- 100
2021-02-11 09:00:00 9.4 15 Sudoeste 28 Sudoeste 0.2 -- -- 100
2021-02-11 08:00:00 9.2 10 Sudoeste 21 Sudoeste 0.2 -- -- 100
2021-02-11 07:00:00 9.4 18 Sudoeste 28 Sudoeste 0 -- -- 100
2021-02-11 06:00:00 9.3 21 Sudoeste 33 Sudoeste 0 -- -- 100
2021-02-11 05:00:00 9 17 Sudoeste 30 Sudoeste 0.2 -- -- 100
2021-02-11 04:00:00 8.7 17 Sudoeste 27 Sudoeste 0.2 -- -- 100
2021-02-11 03:00:00 8.4 17 Sudoeste 24 Sudoeste 0 -- -- 100
2021-02-11 02:00:00 7.2 14 Sudoeste 18 Sudoeste 0 -- -- 99
2021-02-11 01:00:00 6.5 8 Sudoeste 11 Sudoeste 0 -- -- 98
2021-02-11 00:00:00 6.4 8 Sudoeste 25 Sudoeste 0 -- -- 98
2021-02-10 23:00:00 6.7 12 Sudoeste 18 Sudoeste 0.2 -- -- 95
2021-02-10 22:00:00 7.1 9 Sudoeste 14 Sudoeste 0 -- -- 88
2021-02-10 21:00:00 7.2 12 Sudoeste 19 Sudoeste 0 -- -- 85
2021-02-10 20:00:00 7.5 12 Sudoeste 17 Sudoeste 0 -- -- 82
2021-02-10 19:00:00 7.6 9 Sudoeste 15 Sudoeste 0 -- -- 81
2021-02-10 18:00:00 9.1 14 Sudoeste 27 Sudoeste 0 -- -- 73
2021-02-10 17:00:00 9.2 18 Oeste 33 Oeste 0 -- -- 67
2021-02-10 16:00:00 9.7 24 Sudoeste 36 Oeste 0 -- -- 63
2021-02-10 15:00:00 10.5 22 Sudoeste 43 Sudoeste 0 -- -- 61
2021-02-10 14:00:00 9.8 24 Oeste 39 Oeste 0 -- -- 65
2021-02-10 13:00:00 8.6 25 Sudoeste 41 Oeste 0 -- -- 72
2021-02-10 12:00:00 7.7 27 Oeste 42 Oeste 0 -- -- 77
2021-02-10 11:00:00 6.4 23 Sudoeste 38 Oeste 0 -- -- 83
2021-02-10 10:00:00 5.5 21 Oeste 37 Oeste 0 -- -- 90
2021-02-10 09:00:00 4.1 17 Sudoeste 43 Oeste 0 -- -- 95
2021-02-10 08:00:00 4.6 33 Oeste 48 Oeste 0 -- -- 94
2021-02-10 07:00:00 4.7 25 Oeste 45 Sudoeste 0 -- -- 97
2021-02-10 06:00:00 4.8 31 Sudoeste 49 Oeste 0.6 -- -- 96
2021-02-10 05:00:00 4.5 23 Oeste 47 Oeste 0.4 -- -- 98
2021-02-10 04:00:00 4.2 30 Oeste 63 Oeste 2.4 -- -- 96
2021-02-10 03:00:00 4.3 31 Oeste 48 Oeste 4 -- -- 97
2021-02-10 02:00:00 5 22 Sudoeste 53 Sudoeste 2.6 -- -- 99
2021-02-10 01:00:00 4.4 23 Sudoeste 60 Sudoeste 4 -- -- 97
2021-02-10 00:00:00 5 28 Sudoeste 52 Sudoeste 0 -- -- 96
2021-02-09 23:00:00 4.6 30 Sudoeste 50 Sudoeste 0 -- -- 95
2021-02-09 22:00:00 4.6 27 Sudoeste 46 Sudoeste 0.2 -- -- 96
2021-02-09 21:00:00 4.4 21 Oeste 44 Oeste 1 -- -- 99
2021-02-09 20:00:00 3.7 24 Oeste 60 Oeste 1.2 -- -- 97
2021-02-09 19:00:00 5.3 35 Sudoeste 48 Sudoeste 0.2 -- -- 97
2021-02-09 18:00:00 3.5 13 Sudoeste 18 Sudoeste 1 -- -- 100
2021-02-09 17:00:00 2.5 10 Noroeste 43 Oeste 4 -- -- 100
2021-02-09 16:00:00 5.2 13 Oeste 40 Sudoeste 0.8 -- -- 95
2021-02-09 15:00:00 5.9 30 Sudoeste 47 Sudoeste 0 -- -- 87
2021-02-09 14:00:00 4.3 23 Sudoeste 37 Sudoeste 0.2 -- -- 95
2021-02-09 13:00:00 2.5 15 Sudoeste 62 Oeste 2.8 -- -- 97
2021-02-09 12:00:00 4.1 42 Oeste 64 Oeste 5.6 -- -- 93
2021-02-09 11:00:00 6.2 39 Sudoeste 56 Sudoeste 2.8 -- -- 96
2021-02-09 10:00:00 6.4 40 Sudoeste 55 Sudoeste 1 -- -- 96
2021-02-09 09:00:00 6.5 43 Sudoeste 68 Sudoeste 0.8 -- -- 96
2021-02-09 08:00:00 6.4 34 Sudoeste 56 Sudoeste 1 -- -- 98
2021-02-09 07:00:00 6.3 39 Sudoeste 51 Sudoeste 1.2 -- -- 97
2021-02-09 06:00:00 6 32 Sudoeste 49 Sudoeste 0.8 -- -- 99
2021-02-09 05:00:00 5.7 34 Sudoeste 56 Sur 0.2 -- -- 99
2021-02-09 04:00:00 5 28 Sudoeste 37 Sur 0.8 -- -- 99
2021-02-09 03:00:00 4.6 31 Sudoeste 46 Sudoeste 0 -- -- 95
2021-02-09 02:00:00 4.5 26 Sur 38 Sudoeste 0.4 -- -- 95
2021-02-09 01:00:00 4.7 21 Sudoeste 39 Sudoeste 0.2 -- -- 97
2021-02-09 00:00:00 5.1 28 Sudoeste 40 Sudoeste 0 -- -- 97
2021-02-08 23:00:00 5.3 25 Sudoeste 40 Sudoeste 0 -- -- 96
2021-02-08 22:00:00 5.5 24 Sudoeste 39 Sudoeste 0 -- -- 95
2021-02-08 21:00:00 5.8 29 Sudoeste 41 Sudoeste 0 -- -- 95
2021-02-08 20:00:00 5.9 23 Sudoeste 45 Oeste 0 -- -- 96
2021-02-08 19:00:00 6.1 27 Sudoeste 42 Sudoeste 0.4 -- -- 97
2021-02-08 18:00:00 6.3 26 Oeste 43 Oeste 0.2 -- -- 97
2021-02-08 17:00:00 6.3 27 Oeste 45 Oeste 0.6 -- -- 97
2021-02-08 16:00:00 6.1 28 Oeste 48 Oeste 1.6 -- -- 96
2021-02-08 15:00:00 5.5 26 Oeste 51 Oeste 2.8 -- -- 96
2021-02-08 14:00:00 5.8 27 Sudoeste 55 Oeste 0.4 -- -- 92
2021-02-08 13:00:00 6.7 36 Sudoeste 59 Oeste 0 -- -- 88
2021-02-08 12:00:00 6.3 33 Sudoeste 56 Sudoeste 0.2 -- -- 88
2021-02-08 11:00:00 6.2 31 Sudoeste 43 Sudoeste 0 -- -- 90
2021-02-08 10:00:00 4.6 27 Sudoeste 38 Sudoeste 0 -- -- 98
2021-02-08 09:00:00 4.3 23 Sudoeste 43 Sudoeste 0 -- -- 97
2021-02-08 08:00:00 4.1 18 Sudoeste 49 Sudoeste 0.8 -- -- 98
2021-02-08 07:00:00 4.6 23 Sudoeste 34 Sudoeste 0 -- -- 97
2021-02-08 06:00:00 4.5 20 Sudoeste 36 Sudoeste 0 -- -- 97
2021-02-08 05:00:00 5.4 26 Sudoeste 39 Sudoeste 0 -- -- 94
2021-02-08 04:00:00 5.9 20 Sudoeste 31 Oeste 0 -- -- 98
2021-02-08 03:00:00 5.9 24 Sudoeste 45 Sudoeste 1.6 -- -- 98
2021-02-08 02:00:00 6.1 33 Sudoeste 50 Sudoeste 0 -- -- 97
2021-02-08 01:00:00 6 37 Sudoeste 49 Sudoeste 0 -- -- 95
2021-02-08 00:00:00 5.5 34 Sur 45 Sur 4.6 -- -- 99
2021-02-07 23:00:00 5.6 35 Sudoeste 58 Sur 0.2 -- -- 98
2021-02-07 22:00:00 5.1 32 Sudoeste 44 Sudoeste 0.2 -- -- 99
2021-02-07 21:00:00 4.3 26 Sudoeste 36 Sudoeste 0 -- -- 98
2021-02-07 20:00:00 4.3 23 Sudoeste 39 Sudoeste 0 -- -- 99
2021-02-07 19:00:00 4 24 Sudoeste 38 Sudoeste 0 -- -- 99
2021-02-07 18:00:00 3.5 28 Sudoeste 38 Sudoeste 0 -- -- 98
2021-02-07 17:00:00 3.4 25 Sudoeste 37 Sudoeste 0.2 -- -- 97
2021-02-07 16:00:00 3.4 22 Sudoeste 42 Sudoeste 0 -- -- 93
2021-02-07 15:00:00 3.7 23 Sudoeste 39 Sudoeste 0 -- -- 86
2021-02-07 14:00:00 4 22 Sudoeste 38 Sudoeste 0 -- -- 83
2021-02-07 13:00:00 4.5 24 Oeste 32 Sudoeste 0 -- -- 78
2021-02-07 12:00:00 5.2 19 Sudoeste 30 Sudoeste 0 -- -- 80
2021-02-07 11:00:00 4.9 9 Sudoeste 22 Oeste 0 -- -- 75
2021-02-07 10:00:00 3.4 3 Sudoeste 8 Noroeste 0 -- -- 90
2021-02-07 09:00:00 0 9 Oeste 15 Oeste 0 -- -- 97
2021-02-07 08:00:00 -0.1 0 Calma 4 Este 0 -- -- 98
2021-02-07 07:00:00 0.6 0 Calma 5 Nordeste 0 -- -- 96
2021-02-07 06:00:00 1.8 4 Nordeste 13 Nordeste 0 -- -- 90
2021-02-07 05:00:00 1.6 9 Nordeste 13 Este 0 -- -- 94
2021-02-07 04:00:00 2.2 8 Nordeste 11 Nordeste 0 -- -- 92
2021-02-07 03:00:00 1.8 9 Nordeste 17 Nordeste 0 -- -- 94
2021-02-07 02:00:00 1.8 13 Nordeste 20 Nordeste 0 -- -- 92
2021-02-07 01:00:00 2.2 12 Nordeste 17 Nordeste 0 -- -- 88
2021-02-07 00:00:00 4.1 14 Nordeste 19 Norte 0 -- -- 88
2021-02-06 23:00:00 5.1 11 Norte 19 Norte 0 -- -- 96
2021-02-06 22:00:00 4.8 -- -- -- -- 0 -- -- 99
2021-02-06 21:00:00 4.4 5 Nordeste 9 Nordeste 0 -- -- 98
2021-02-06 20:00:00 5.2 5 Nordeste 12 Nordeste 0 -- -- 97
2021-02-06 19:00:00 5.5 10 Nordeste 20 Nordeste 0 -- -- 96
2021-02-06 18:00:00 5.9 18 Nordeste 37 Nordeste 0 -- -- 92
2021-02-06 17:00:00 6.1 24 Nordeste 37 Nordeste 0 -- -- 93
2021-02-06 16:00:00 5.5 26 Nordeste 36 Nordeste 0 -- -- 98
2021-02-06 15:00:00 5.4 26 Nordeste 40 Nordeste 0 -- -- 99
2021-02-06 14:00:00 5.6 27 Nordeste 44 Nordeste 0 -- -- 98
2021-02-06 13:00:00 5.5 29 Nordeste 37 Nordeste 0.2 -- -- 99
2021-02-06 12:00:00 5.6 23 Nordeste 36 Nordeste 1 -- -- 100
2021-02-06 11:00:00 6 17 Nordeste 33 Nordeste 0.6 -- -- 100
2021-02-06 10:00:00 5.5 10 Nordeste 13 Norte 0.6 -- -- 100
2021-02-06 09:00:00 5.1 11 Nordeste 15 Nordeste 0.8 -- -- 100
2021-02-06 08:00:00 5.1 10 Norte 14 Norte 1.2 -- -- 100
2021-02-06 07:00:00 5.9 0 Calma 11 Oeste 1 -- -- 100
2021-02-06 06:00:00 5.9 9 Sudoeste 13 Sudoeste 0.8 -- -- 100
2021-02-06 05:00:00 6.1 7 Sur 13 Sudoeste 0 -- -- 100
2021-02-06 04:00:00 6.2 10 Sudoeste 17 Sudoeste 0 -- -- 100
2021-02-06 03:00:00 6.2 12 Sudoeste 16 Sudoeste 0 -- -- 100
2021-02-06 02:00:00 6.5 9 Sudoeste 12 Sur 0 -- -- 100
2021-02-06 01:00:00 6.6 6 Oeste 14 Oeste 0 -- -- 100
2021-02-06 00:00:00 6.8 12 Oeste 16 Oeste 0.2 -- -- 100
2021-02-05 23:00:00 7.3 8 Sur 31 Norte 0.6 -- -- 100
2021-02-05 22:00:00 7 8 Norte 25 Norte 0 -- -- 100
2021-02-05 21:00:00 7.1 12 Norte 16 Norte 1.2 -- -- 100
2021-02-05 20:00:00 7 9 Norte 15 Oeste 0.6 -- -- 100
2021-02-05 19:00:00 7.3 8 Noroeste 11 Noroeste 5 -- -- 100
2021-02-05 18:00:00 7.6 7 Norte 24 Nordeste 1.4 -- -- 98
2021-02-05 17:00:00 8 20 Nordeste 28 Nordeste 0 -- -- 96
2021-02-05 16:00:00 8.3 17 Nordeste 22 Nordeste 0 -- -- 96
2021-02-05 15:00:00 8.2 14 Nordeste 24 Nordeste 0 -- -- 96
2021-02-05 14:00:00 7.7 14 Nordeste 22 Nordeste 0 -- -- 99
2021-02-05 13:00:00 7 19 Nordeste 26 Nordeste 0 -- -- 100
2021-02-05 12:00:00 6.6 18 Nordeste 30 Nordeste 0 -- -- 100
2021-02-05 11:00:00 5.9 18 Nordeste 30 Nordeste 0.2 -- -- 100
2021-02-05 10:00:00 5.2 19 Nordeste 31 Nordeste 0.2 -- -- 100
2021-02-05 09:00:00 5.1 21 Nordeste 30 Nordeste 0.4 -- -- 100
2021-02-05 08:00:00 4.8 25 Nordeste 35 Nordeste 0.8 -- -- 100
2021-02-05 07:00:00 4.8 19 Nordeste 30 Nordeste 0 -- -- 100
2021-02-05 06:00:00 4.6 23 Nordeste 33 Nordeste 1 -- -- 100
2021-02-05 05:00:00 4.6 27 Nordeste 36 Nordeste 0 -- -- 100
2021-02-05 04:00:00 4.7 25 Nordeste 34 Nordeste 0.6 -- -- 100
2021-02-05 03:00:00 4.6 27 Nordeste 38 Nordeste 0.2 -- -- 100
2021-02-05 02:00:00 4.8 16 Nordeste 24 Nordeste 2.2 -- -- 100
2021-02-05 01:00:00 4.7 12 Nordeste 21 Nordeste 0.4 -- -- 100
2021-02-05 00:00:00 4.6 14 Nordeste 20 Nordeste 0 -- -- 100
2021-02-04 23:00:00 4.7 8 Nordeste 15 Nordeste 0 -- -- 100
2021-02-04 22:00:00 4.8 7 Nordeste 10 Nordeste 0.4 -- -- 100
2021-02-04 21:00:00 5.1 5 Nordeste 10 Nordeste 0 -- -- 98
2021-02-04 20:00:00 5.1 9 Nordeste 16 Este 0 -- -- 98
2021-02-04 19:00:00 4.9 9 Este 17 Este 0 -- -- 98
2021-02-04 18:00:00 4.9 8 Este 19 Este 0.2 -- -- 97
2021-02-04 17:00:00 4.8 14 Este 20 Este 1.4 -- -- 97
2021-02-04 16:00:00 4.9 11 Este 18 Este 0.8 -- -- 95
2021-02-04 15:00:00 5 10 Este 14 Este 1.8 -- -- 94
2021-02-04 14:00:00 5.4 3 Este 5 Este 2.2 -- -- 92
2021-02-04 13:00:00 5.5 3 Norte 5 Noroeste 2.2 -- -- 96
2021-02-04 12:00:00 5.9 3 Norte 5 Este 1.8 -- -- 93
2021-02-04 11:00:00 6.1 2 Sudeste 8 Norte 1.6 -- -- 99
2021-02-04 10:00:00 6.1 8 Noroeste 12 Este 1 -- -- 100
2021-02-04 09:00:00 5.9 7 Este 10 Este 0.2 -- -- 100
2021-02-04 08:00:00 5.6 4 Este 7 Sudeste 0.2 -- -- 100
2021-02-04 07:00:00 5.3 3 Sur 8 Sur 0 -- -- 100
2021-02-04 06:00:00 4.9 4 Sur 5 Sudeste 0 -- -- 100
2021-02-04 05:00:00 4.7 3 Sur 12 Sudoeste 0 -- -- 100
2021-02-04 04:00:00 5.4 11 Sudoeste 15 Sur 0 -- -- 100
2021-02-04 03:00:00 5.5 11 Sudoeste 14 Sur 0 -- -- 100
2021-02-04 02:00:00 5.9 11 Sudoeste 16 Sur 0 -- -- 100
2021-02-04 01:00:00 6.7 13 Sudoeste 20 Sudoeste 0 -- -- 99
2021-02-04 00:00:00 7.2 15 Sudoeste 21 Sudoeste 0 -- -- 100
2021-02-03 23:00:00 6.6 14 Sudoeste 18 Sudoeste 0 -- -- 100
2021-02-03 22:00:00 6.5 14 Sudoeste 25 Sudoeste 0 -- -- 98
2021-02-03 21:00:00 7.3 20 Sudoeste 27 Sur 0 -- -- 97
2021-02-03 20:00:00 7 17 Sudoeste 24 Sudoeste 0 -- -- 96
2021-02-03 19:00:00 7.8 17 Sudoeste 27 Sudoeste 0 -- -- 95
2021-02-03 18:00:00 8.3 22 Sudoeste 35 Sudoeste 0.4 -- -- 93
2021-02-03 17:00:00 8.9 18 Sudoeste 25 Oeste 2 -- -- 96
2021-02-03 16:00:00 9.6 17 Sudoeste 31 Sudoeste 0.6 -- -- 91
2021-02-03 15:00:00 8.7 29 Sudoeste 43 Sudoeste 1.2 -- -- 95
2021-02-03 14:00:00 9.3 18 Sudoeste 35 Sudoeste 0.4 -- -- 95
2021-02-03 13:00:00 9.2 24 Sudoeste 41 Sudoeste 0 -- -- 90
2021-02-03 12:00:00 9.7 34 Sudoeste 46 Sudoeste 0 -- -- 85
2021-02-03 11:00:00 9.5 27 Sudoeste 39 Sudoeste 0 -- -- 90
2021-02-03 10:00:00 7.9 29 Sudoeste 52 Sudoeste 0.2 -- -- 95
2021-02-03 09:00:00 8 28 Sudoeste 40 Sudoeste 0.4 -- -- 98
2021-02-03 08:00:00 7.8 21 Oeste 41 Sudoeste 1.8 -- -- 100
2021-02-03 07:00:00 8 28 Sudoeste 53 Sudoeste 0.4 -- -- 97
2021-02-03 06:00:00 8.3 33 Sudoeste 57 Sudoeste 0 -- -- 95
2021-02-03 05:00:00 8.3 39 Sudoeste 55 Sudoeste 0 -- -- 95
2021-02-03 04:00:00 8.2 41 Sudoeste 62 Sudoeste 0 -- -- 96
2021-02-03 03:00:00 8.8 44 Sudoeste 77 Sur 0 -- -- 91
2021-02-03 02:00:00 8.7 45 Sudoeste 66 Sur 0 -- -- 91
2021-02-03 01:00:00 8.9 38 Sudoeste 55 Sudoeste 0 -- -- 89
2021-02-03 00:00:00 8.7 39 Sudoeste 67 Sur 0 -- -- 89
2021-02-02 23:00:00 8.6 38 Sudoeste 60 Sudoeste 0 -- -- 91
2021-02-02 22:00:00 8.4 40 Sudoeste 57 Sur 0 -- -- 90
2021-02-02 21:00:00 8.7 34 Sudoeste 49 Sudoeste 0 -- -- 90
2021-02-02 20:00:00 8.8 32 Sudoeste 49 Sudoeste 0 -- -- 93
2021-02-02 19:00:00 9.3 26 Sudoeste 45 Sudoeste 0 -- -- 90
2021-02-02 18:00:00 9.7 26 Sudoeste 44 Sudoeste 0 -- -- 86
2021-02-02 17:00:00 9.7 30 Sudoeste 53 Sudoeste 0 -- -- 85
2021-02-02 16:00:00 10.2 31 Sudoeste 44 Sudoeste 0 -- -- 85
2021-02-02 15:00:00 10.5 23 Sudoeste 38 Sudoeste 0 -- -- 84
2021-02-02 14:00:00 10 23 Sudoeste 40 Sur 0 -- -- 84
2021-02-02 13:00:00 10.1 30 Sudoeste 40 Sudoeste 0 -- -- 82
2021-02-02 12:00:00 10 26 Sudoeste 42 Sudoeste 0 -- -- 85
2021-02-02 11:00:00 8.9 24 Sudoeste 38 Sudoeste 0.2 -- -- 95
2021-02-02 10:00:00 8 17 Sudoeste 33 Sudoeste 0 -- -- 97
2021-02-02 09:00:00 7.8 21 Sudoeste 31 Sudoeste 0 -- -- 98
2021-02-02 08:00:00 7.8 18 Sudoeste 33 Sudoeste 0 -- -- 98
2021-02-02 07:00:00 8.2 26 Sudoeste 40 Sudoeste 0 -- -- 99
2021-02-02 06:00:00 8.6 27 Sudoeste 36 Sudoeste 0.2 -- -- 100
2021-02-02 05:00:00 8.8 22 Sudoeste 35 Sudoeste 0.2 -- -- 100
2021-02-02 04:00:00 9.1 22 Sudoeste 34 Sudoeste 0 -- -- 100
2021-02-02 03:00:00 9 18 Sudoeste 35 Sudoeste 0 -- -- 100
2021-02-02 02:00:00 9.1 22 Sudoeste 35 Sudoeste 0 -- -- 98
2021-02-02 01:00:00 9.2 22 Sudoeste 33 Sudoeste 0 -- -- 97
2021-02-02 00:00:00 9 18 Sudoeste 31 Sur 0 -- -- 97
2021-02-01 23:00:00 8.7 24 Sudoeste 38 Sudoeste 0 -- -- 98
2021-02-01 22:00:00 9.2 23 Sudoeste 35 Sudoeste 0 -- -- 94
2021-02-01 21:00:00 9.2 23 Sudoeste 33 Sudoeste 0 -- -- 93
2021-02-01 20:00:00 9.7 21 Sudoeste 30 Sudoeste 0 -- -- 88
2021-02-01 19:00:00 10.2 26 Sudoeste 36 Sudoeste 0 -- -- 84
2021-02-01 18:00:00 10.8 24 Sudoeste 36 Sudoeste 0 -- -- 81
2021-02-01 17:00:00 11.2 26 Sudoeste 44 Sudoeste 0 -- -- 79
2021-02-01 16:00:00 11.4 28 Oeste 58 Oeste 0 -- -- 73
2021-02-01 15:00:00 11.6 39 Oeste 55 Oeste 0 -- -- 72
2021-02-01 14:00:00 11.7 28 Oeste 47 Sudoeste 0 -- -- 77
2021-02-01 13:00:00 10 26 Sudoeste 44 Sudoeste 0 -- -- 86
2021-02-01 12:00:00 9.1 24 Sudoeste 35 Sudoeste 0 -- -- 91
2021-02-01 11:00:00 8.3 18 Sudoeste 38 Sudoeste 0 -- -- 91
2021-02-01 10:00:00 8.5 26 Sudoeste 34 Sudoeste 0 -- -- 89
2021-02-01 09:00:00 7.8 19 Sudoeste 37 Oeste 0 -- -- 90
2021-02-01 08:00:00 7.8 23 Oeste 35 Sudoeste 0 -- -- 89
2021-02-01 07:00:00 7.8 20 Sudoeste 31 Sudoeste 0 -- -- 90
2021-02-01 06:00:00 7.7 19 Sudoeste 30 Sudoeste 0 -- -- 89
2021-02-01 05:00:00 7.7 23 Oeste 44 Oeste 0 -- -- 89
2021-02-01 04:00:00 7.6 35 Oeste 59 Oeste 0 -- -- 87
2021-02-01 03:00:00 8 43 Oeste 61 Oeste 0 -- -- 84
2021-02-01 02:00:00 8.2 43 Oeste 73 Sudoeste 0 -- -- 84
2021-02-01 01:00:00 8.9 44 Oeste 71 Oeste 0 -- -- 86
2021-02-01 00:00:00 9.1 35 Oeste 62 Sudoeste 0 -- -- 89